createdAt,value
2022-09-22T00:01:35.974Z,10.93
2022-09-22T00:04:07.060Z,11.13
2022-09-22T00:06:38.721Z,11.10
2022-09-22T00:09:10.784Z,11.30
2022-09-22T00:11:40.351Z,10.43
2022-09-22T00:14:10.843Z,10.30
2022-09-22T00:16:40.763Z,10.27
2022-09-22T00:19:09.416Z,10.37
2022-09-22T00:21:37.664Z,10.57
2022-09-22T00:24:08.339Z,11.60
2022-09-22T00:26:38.081Z,10.83
2022-09-22T00:29:08.044Z,11.47
2022-09-22T00:31:37.414Z,11.17
2022-09-22T00:34:06.331Z,11.30
2022-09-22T00:36:35.139Z,11.33
2022-09-22T00:39:03.179Z,11.40
2022-09-22T00:41:35.921Z,11.80
2022-09-22T00:44:36.489Z,12.40
2022-09-22T00:47:13.553Z,12.10
2022-09-22T00:49:49.597Z,11.47
2022-09-22T00:52:25.175Z,11.90
2022-09-22T00:54:57.298Z,12.10
2022-09-22T00:57:31.150Z,13.03
2022-09-22T01:00:01.032Z,12.10
2022-09-22T01:02:29.033Z,12.70
2022-09-22T01:04:57.815Z,12.10
2022-09-22T01:07:29.932Z,12.57
2022-09-22T01:09:58.861Z,12.17
2022-09-22T01:12:30.683Z,12.30
2022-09-22T01:15:26.005Z,11.23
2022-09-22T01:18:08.041Z,11.50
2022-09-22T01:21:10.396Z,11.67
2022-09-22T01:24:13.948Z,11.43
2022-09-22T01:27:03.622Z,12.00
2022-09-22T01:29:59.011Z,11.53
2022-09-22T01:32:32.373Z,11.97
2022-09-22T01:35:07.158Z,11.87
2022-09-22T01:37:44.880Z,12.10
2022-09-22T01:40:18.905Z,11.83
2022-09-22T01:42:50.837Z,11.27
2022-09-22T01:45:23.053Z,11.03
2022-09-22T01:47:55.850Z,11.33
2022-09-22T01:50:27.270Z,11.03
2022-09-22T01:52:59.771Z,10.60
2022-09-22T01:55:31.628Z,10.87
2022-09-22T01:58:03.237Z,11.17
2022-09-22T02:00:32.328Z,10.47
2022-09-22T02:03:05.645Z,11.07
2022-09-22T02:05:39.451Z,10.83
2022-09-22T02:08:15.063Z,11.03
2022-09-22T02:10:46.237Z,12.20
2022-09-22T02:13:14.336Z,12.43
2022-09-22T02:16:01.756Z,11.87
2022-09-22T02:18:36.241Z,12.47
2022-09-22T02:21:05.727Z,12.57
2022-09-22T02:23:33.770Z,12.33
2022-09-22T02:26:03.909Z,12.60
2022-09-22T02:28:34.637Z,13.80
2022-09-22T02:31:19.673Z,13.87
2022-09-22T02:33:51.776Z,13.23
2022-09-22T02:36:37.944Z,13.77
2022-09-22T02:39:10.736Z,13.70
2022-09-22T02:41:48.491Z,13.67
2022-09-22T02:44:22.543Z,14.37
2022-09-22T02:46:57.388Z,13.40
2022-09-22T02:49:28.635Z,14.53
2022-09-22T02:51:56.845Z,14.67
2022-09-22T02:54:25.017Z,14.00
2022-09-22T02:56:53.090Z,14.13
2022-09-22T02:59:21.113Z,13.57
2022-09-22T03:01:49.893Z,13.87
2022-09-22T03:04:18.002Z,14.67
2022-09-22T03:06:47.445Z,13.57
2022-09-22T03:09:17.549Z,13.77
2022-09-22T03:11:45.838Z,14.73
2022-09-22T03:14:13.849Z,14.57
2022-09-22T03:16:41.833Z,13.63
2022-09-22T03:19:09.812Z,13.83
2022-09-22T03:21:37.984Z,13.43
2022-09-22T03:24:07.565Z,14.43
2022-09-22T03:26:35.869Z,13.90
2022-09-22T03:29:03.984Z,14.07
2022-09-22T03:31:32.013Z,14.97
2022-09-22T03:34:00.125Z,14.67
2022-09-22T03:36:28.324Z,14.10
2022-09-22T03:38:56.528Z,13.20
2022-09-22T03:41:26.003Z,13.40
2022-09-22T03:43:54.197Z,13.17
2022-09-22T03:46:22.308Z,13.40
2022-09-22T03:48:50.381Z,14.27
2022-09-22T03:51:19.351Z,13.07
2022-09-22T03:53:47.480Z,12.00
2022-09-22T03:56:16.941Z,12.37
2022-09-22T03:58:46.279Z,12.30
2022-09-22T04:01:14.543Z,12.57
2022-09-22T04:03:42.869Z,11.87
2022-09-22T04:06:11.245Z,12.43
2022-09-22T04:08:39.770Z,11.33
2022-09-22T04:11:08.324Z,11.83
2022-09-22T04:13:36.528Z,12.60
2022-09-22T04:16:06.398Z,11.73
2022-09-22T04:18:34.972Z,12.90
2022-09-22T04:21:02.962Z,13.03
2022-09-22T04:23:30.988Z,11.57
2022-09-22T04:25:58.991Z,10.80
2022-09-22T04:28:27.024Z,10.33
2022-09-22T04:30:55.668Z,11.77
2022-09-22T04:33:25.154Z,11.80
2022-09-22T04:35:53.514Z,11.20
2022-09-22T04:38:22.062Z,11.60
2022-09-22T04:40:50.863Z,10.30
2022-09-22T04:43:19.091Z,10.03
2022-09-22T04:45:48.789Z,10.73
2022-09-22T04:48:17.506Z,11.10
2022-09-22T04:50:48.241Z,10.67
2022-09-22T04:53:16.872Z,10.20
2022-09-22T04:55:45.116Z,9.97
2022-09-22T04:58:13.944Z,10.70
2022-09-22T05:00:42.148Z,9.73
2022-09-22T05:03:10.906Z,9.63
2022-09-22T05:05:39.094Z,10.30
2022-09-22T05:08:08.526Z,9.73
2022-09-22T05:10:36.812Z,9.60
2022-09-22T05:13:05.721Z,9.23
2022-09-22T05:15:34.707Z,9.33
2022-09-22T05:18:02.876Z,8.90
2022-09-22T05:20:30.913Z,8.93
2022-09-22T05:22:58.898Z,8.37
2022-09-22T05:25:28.307Z,8.00
2022-09-22T05:27:56.985Z,8.53
2022-09-22T05:30:26.906Z,8.27
2022-09-22T05:32:54.978Z,8.97
2022-09-22T05:35:24.877Z,8.60
2022-09-22T05:37:54.299Z,8.03
2022-09-22T05:40:26.052Z,8.53
2022-09-22T05:42:55.689Z,7.47
2022-09-22T05:45:24.228Z,8.70
2022-09-22T05:47:53.231Z,7.70
2022-09-22T05:50:23.666Z,8.30
2022-09-22T05:52:51.909Z,8.27
2022-09-22T05:55:20.178Z,7.47
2022-09-22T05:57:48.174Z,7.83
2022-09-22T06:00:17.814Z,7.20
2022-09-22T06:02:45.949Z,7.47
2022-09-22T06:05:17.398Z,7.10
2022-09-22T06:07:47.715Z,7.40
2022-09-22T06:10:15.784Z,7.50
2022-09-22T06:12:43.806Z,7.57
2022-09-22T06:15:12.058Z,6.60
2022-09-22T06:17:41.422Z,7.03
2022-09-22T06:20:10.014Z,6.97
2022-09-22T06:22:37.982Z,6.87
2022-09-22T06:25:09.026Z,7.27
2022-09-22T06:27:37.067Z,6.53
2022-09-22T06:30:05.740Z,7.20
2022-09-22T06:32:34.241Z,6.10
2022-09-22T06:35:03.639Z,6.77
2022-09-22T06:37:32.497Z,6.33
2022-09-22T06:40:00.538Z,6.20
2022-09-22T06:42:28.556Z,5.90
2022-09-22T06:44:56.559Z,5.83
2022-09-22T06:47:24.895Z,5.70
2022-09-22T06:49:53.582Z,4.27
2022-09-22T06:52:22.913Z,4.67
2022-09-22T06:54:53.853Z,4.37
2022-09-22T06:57:22.029Z,4.90
2022-09-22T06:59:50.400Z,4.97
2022-09-22T07:02:18.455Z,4.80
2022-09-22T07:04:48.182Z,4.77
2022-09-22T07:07:16.533Z,4.90
2022-09-22T07:09:46.229Z,3.80
2022-09-22T07:12:14.286Z,4.20
2022-09-22T07:14:48.864Z,3.90
2022-09-22T07:17:17.281Z,3.53
2022-09-22T07:19:47.302Z,3.27
2022-09-22T07:22:15.653Z,4.57
2022-09-22T07:24:45.372Z,4.53
2022-09-22T07:27:20.395Z,4.63
2022-09-22T07:29:48.873Z,4.30
2022-09-22T07:32:17.566Z,4.63
2022-09-22T07:34:45.575Z,3.60
2022-09-22T07:37:15.772Z,3.60
2022-09-22T07:39:45.280Z,3.07
2022-09-22T07:42:13.825Z,3.60
2022-09-22T07:44:59.044Z,3.30
2022-09-22T07:47:44.529Z,3.40
2022-09-22T07:50:12.535Z,3.87
2022-09-22T07:52:40.521Z,3.40
2022-09-22T07:55:10.378Z,3.40
2022-09-22T07:57:38.388Z,3.60
2022-09-22T08:00:07.337Z,3.50
2022-09-22T08:02:35.326Z,3.40
2022-09-22T08:05:03.338Z,3.20
2022-09-22T08:07:36.154Z,3.03
2022-09-22T08:10:04.263Z,3.00
2022-09-22T08:12:37.316Z,2.83
2022-09-22T08:15:05.965Z,3.03
2022-09-22T08:17:33.964Z,3.20
2022-09-22T08:20:02.552Z,3.20
2022-09-22T08:22:30.809Z,3.20
2022-09-22T08:24:58.813Z,3.20
2022-09-22T08:27:27.124Z,3.17
2022-09-22T08:29:56.493Z,2.90
2022-09-22T08:32:26.644Z,3.03
2022-09-22T08:34:58.039Z,2.80
2022-09-22T08:37:27.664Z,3.10
2022-09-22T08:39:56.309Z,2.73
2022-09-22T08:42:25.507Z,2.80
2022-09-22T08:45:03.436Z,2.90
2022-09-22T08:47:54.258Z,2.80
2022-09-22T08:50:45.159Z,2.13
2022-09-22T08:53:17.702Z,2.30
2022-09-22T08:55:51.800Z,2.80
2022-09-22T08:58:30.086Z,2.47
2022-09-22T09:01:07.335Z,2.40
2022-09-22T09:03:51.612Z,2.27
2022-09-22T09:06:26.270Z,2.43
2022-09-22T09:09:08.014Z,2.30
2022-09-22T09:11:58.077Z,2.40
2022-09-22T09:14:52.653Z,2.73
2022-09-22T09:17:27.193Z,2.90
2022-09-22T09:20:02.070Z,3.10
2022-09-22T09:22:34.953Z,2.50
2022-09-22T09:25:24.756Z,2.20
2022-09-22T09:27:57.158Z,2.40
2022-09-22T09:30:25.777Z,2.40
2022-09-22T09:33:00.644Z,2.40
2022-09-22T09:35:45.114Z,2.20
2022-09-22T09:38:16.197Z,2.30
2022-09-22T09:40:51.253Z,2.40
2022-09-22T09:43:20.813Z,2.10
2022-09-22T09:46:00.522Z,2.23
2022-09-22T09:48:37.288Z,2.43
2022-09-22T09:51:06.287Z,2.37
2022-09-22T09:53:41.510Z,2.13
2022-09-22T09:56:22.418Z,1.90
2022-09-22T09:59:15.656Z,2.20
2022-09-22T10:01:46.971Z,2.10
2022-09-22T10:04:30.670Z,2.33
2022-09-22T10:07:12.871Z,2.40
2022-09-22T10:09:41.644Z,2.17
2022-09-22T10:12:23.175Z,2.37
2022-09-22T10:14:52.631Z,2.40
2022-09-22T10:17:23.142Z,2.50
2022-09-22T10:19:52.531Z,2.00
2022-09-22T10:22:28.237Z,2.20
2022-09-22T10:25:02.031Z,2.03
2022-09-22T10:27:32.262Z,1.73
2022-09-22T10:30:25.725Z,2.00
2022-09-22T10:33:14.345Z,1.80
2022-09-22T10:35:45.965Z,1.80
2022-09-22T10:38:20.165Z,1.90
2022-09-22T10:40:51.845Z,2.30
2022-09-22T10:43:47.990Z,2.27
2022-09-22T10:46:50.317Z,2.07
2022-09-22T10:49:31.234Z,1.90
2022-09-22T10:52:10.953Z,2.00
2022-09-22T10:54:51.501Z,2.20
2022-09-22T10:57:53.720Z,2.23
2022-09-22T11:00:23.156Z,1.90
2022-09-22T11:03:17.953Z,1.90
2022-09-22T11:06:15.768Z,1.83
2022-09-22T11:09:10.793Z,1.87
2022-09-22T11:12:04.405Z,1.70
2022-09-22T11:14:43.853Z,1.80
2022-09-22T11:17:25.064Z,1.50
2022-09-22T11:20:14.654Z,1.47
2022-09-22T11:23:00.964Z,1.50
2022-09-22T11:25:49.490Z,1.10
2022-09-22T11:28:34.125Z,1.17
2022-09-22T11:31:02.220Z,1.20
2022-09-22T11:34:00.087Z,1.60
2022-09-22T11:36:37.649Z,1.83
2022-09-22T11:39:21.736Z,2.10
2022-09-22T11:42:04.427Z,2.90
2022-09-22T11:44:37.238Z,17.40
2022-09-22T11:47:28.662Z,14.80
2022-09-22T11:50:09.393Z,10.30
2022-09-22T11:52:51.836Z,6.83
2022-09-22T11:55:30.677Z,5.00
2022-09-22T11:58:02.218Z,5.00
2022-09-22T12:00:36.193Z,8.93
2022-09-22T12:03:10.521Z,5.03
2022-09-22T12:05:42.721Z,3.77
2022-09-22T12:08:14.852Z,3.13
2022-09-22T12:10:44.681Z,3.33
2022-09-22T12:13:17.476Z,3.10
2022-09-22T12:15:56.240Z,2.93
2022-09-22T12:18:30.524Z,10.10
2022-09-22T12:21:03.317Z,15.67
2022-09-22T12:23:39.876Z,12.97
2022-09-22T12:26:10.581Z,6.57
2022-09-22T12:28:43.172Z,4.20
2022-09-22T12:31:14.155Z,4.23
2022-09-22T12:33:48.517Z,3.43
2022-09-22T12:36:18.362Z,3.10
2022-09-22T12:38:46.897Z,3.00
2022-09-22T12:41:19.594Z,2.80
2022-09-22T12:43:49.053Z,6.70
2022-09-22T12:46:27.920Z,10.17
2022-09-22T12:48:56.097Z,9.77
2022-09-22T12:51:34.488Z,9.03
2022-09-22T12:54:48.122Z,13.07
2022-09-22T12:57:30.300Z,10.40
2022-09-22T13:00:36.185Z,9.10
2022-09-22T13:03:47.849Z,6.43
2022-09-22T13:06:55.348Z,6.73
2022-09-22T13:09:25.970Z,7.07
2022-09-22T13:12:31.341Z,5.93
2022-09-22T13:15:18.804Z,4.43
2022-09-22T13:17:49.538Z,3.83
2022-09-22T13:20:20.654Z,3.83
2022-09-22T13:22:48.966Z,3.50
2022-09-22T13:25:25.717Z,3.23
2022-09-22T13:28:05.229Z,3.50
2022-09-22T13:30:33.379Z,3.40
2022-09-22T13:33:04.871Z,2.90
2022-09-22T13:35:39.301Z,3.07
2022-09-22T13:38:07.736Z,2.80
2022-09-22T13:40:35.968Z,3.17
2022-09-22T13:43:07.241Z,3.13
2022-09-22T13:45:36.245Z,3.07
2022-09-22T13:48:09.964Z,3.13
2022-09-22T13:50:44.590Z,2.67
2022-09-22T13:53:19.384Z,3.00
2022-09-22T13:55:56.086Z,3.00
2022-09-22T13:58:37.936Z,3.30
2022-09-22T14:01:19.474Z,3.87
2022-09-22T14:04:19.717Z,3.90
2022-09-22T14:06:47.840Z,3.40
2022-09-22T14:09:15.980Z,3.47
2022-09-22T14:11:44.285Z,3.20
2022-09-22T14:14:24.288Z,3.47
2022-09-22T14:16:58.676Z,3.20
2022-09-22T14:19:33.138Z,3.13
2022-09-22T14:22:03.924Z,3.20
2022-09-22T14:24:34.397Z,3.17
2022-09-22T14:27:04.811Z,3.00
2022-09-22T14:29:35.539Z,2.73
2022-09-22T14:32:12.922Z,3.60
2022-09-22T14:34:48.609Z,3.73
2022-09-22T14:37:23.518Z,3.50
2022-09-22T14:39:58.744Z,3.10
2022-09-22T14:42:29.412Z,2.73
2022-09-22T14:45:20.892Z,2.87
2022-09-22T14:48:08.924Z,3.60
2022-09-22T14:50:42.195Z,4.77
2022-09-22T14:53:21.704Z,4.30
2022-09-22T14:55:53.226Z,4.33
2022-09-22T14:58:24.872Z,4.50
2022-09-22T15:01:13.251Z,4.80
2022-09-22T15:03:43.430Z,4.77
2022-09-22T15:06:15.246Z,4.47
2022-09-22T15:08:44.968Z,4.47
2022-09-22T15:11:13.036Z,4.43
2022-09-22T15:13:42.616Z,5.00
2022-09-22T15:16:39.496Z,5.17
2022-09-22T15:19:11.682Z,5.27
2022-09-22T15:21:48.389Z,5.30
2022-09-22T15:24:21.291Z,5.30
2022-09-22T15:26:49.411Z,5.13
2022-09-22T15:29:17.481Z,4.93
2022-09-22T15:31:45.645Z,4.63
2022-09-22T15:34:14.960Z,4.63
2022-09-22T15:36:46.787Z,5.40
2022-09-22T15:39:20.662Z,4.60
2022-09-22T15:41:49.111Z,4.57
2022-09-22T15:44:17.370Z,4.70
2022-09-22T15:46:48.602Z,4.70
2022-09-22T15:49:22.333Z,4.73
2022-09-22T15:51:55.949Z,4.60
2022-09-22T15:54:26.106Z,5.27
2022-09-22T15:56:57.571Z,4.67
2022-09-22T15:59:27.993Z,4.93
2022-09-22T16:01:57.055Z,5.23
2022-09-22T16:04:27.392Z,5.87
2022-09-22T16:06:59.309Z,6.83
2022-09-22T16:09:27.381Z,7.50
2022-09-22T16:11:57.907Z,7.30
2022-09-22T16:14:25.906Z,8.57
2022-09-22T16:16:53.962Z,8.63
2022-09-22T16:19:21.961Z,7.10
2022-09-22T16:21:51.878Z,6.87
2022-09-22T16:24:22.507Z,6.10
2022-09-22T16:26:51.674Z,6.03
2022-09-22T16:29:19.754Z,7.20
2022-09-22T16:31:48.003Z,7.30
2022-09-22T16:34:16.173Z,7.10
2022-09-22T16:36:44.575Z,8.07
2022-09-22T16:39:12.622Z,7.27
2022-09-22T16:41:45.733Z,7.30
2022-09-22T16:44:14.264Z,7.00
2022-09-22T16:46:42.392Z,6.43
2022-09-22T16:49:12.727Z,5.63
2022-09-22T16:51:42.645Z,6.43
2022-09-22T16:54:13.617Z,5.60
2022-09-22T16:56:44.957Z,5.53
2022-09-22T16:59:16.143Z,5.83
2022-09-22T17:01:44.632Z,5.20
2022-09-22T17:04:15.737Z,5.83
2022-09-22T17:06:44.748Z,6.13
2022-09-22T17:09:14.069Z,5.90
2022-09-22T17:11:45.583Z,6.23
2022-09-22T17:14:15.680Z,6.70
2022-09-22T17:16:44.998Z,7.47
2022-09-22T17:19:16.105Z,7.80
2022-09-22T17:21:45.787Z,7.77
2022-09-22T17:24:14.829Z,7.83
2022-09-22T17:26:47.825Z,8.60
2022-09-22T17:29:16.951Z,8.47
2022-09-22T17:31:47.190Z,8.67
2022-09-22T17:34:15.357Z,9.60
2022-09-22T17:36:43.393Z,9.20
2022-09-22T17:39:11.734Z,8.77
2022-09-22T17:41:45.428Z,9.40
2022-09-22T17:44:18.170Z,8.80
2022-09-22T17:47:00.072Z,9.63
2022-09-22T17:49:45.323Z,9.10
2022-09-22T17:52:31.969Z,8.13
2022-09-22T17:55:08.179Z,8.87
2022-09-22T17:57:37.690Z,9.60
2022-09-22T18:00:09.436Z,9.10
2022-09-22T18:02:38.736Z,9.07
2022-09-22T18:05:08.681Z,9.47
2022-09-22T18:07:40.169Z,9.80
2022-09-22T18:10:10.437Z,8.93
2022-09-22T18:12:41.191Z,9.67
2022-09-22T18:15:13.239Z,10.17
2022-09-22T18:17:43.025Z,10.03
2022-09-22T18:20:12.863Z,10.13
2022-09-22T18:22:41.681Z,10.50
2022-09-22T18:25:11.699Z,10.70
2022-09-22T18:27:40.009Z,11.50
2022-09-22T18:30:15.322Z,11.90
2022-09-22T18:32:43.950Z,10.90
2022-09-22T18:35:12.832Z,11.10
2022-09-22T18:37:41.207Z,10.00
2022-09-22T18:40:12.327Z,11.27
2022-09-22T18:42:41.408Z,10.47
2022-09-22T18:45:12.459Z,11.67
2022-09-22T18:47:43.510Z,10.70
2022-09-22T18:50:12.761Z,10.00
2022-09-22T18:52:43.024Z,9.90
2022-09-22T18:55:11.712Z,10.83
2022-09-22T18:57:39.684Z,10.50
2022-09-22T19:00:08.954Z,10.27
2022-09-22T19:02:39.465Z,10.30
2022-09-22T19:05:08.065Z,10.40
2022-09-22T19:07:42.583Z,10.13
2022-09-22T19:10:12.983Z,11.07
2022-09-22T19:12:41.484Z,11.27
2022-09-22T19:15:13.531Z,10.40
2022-09-22T19:17:45.542Z,11.90
2022-09-22T19:20:18.343Z,11.93
2022-09-22T19:22:46.982Z,12.13
2022-09-22T19:25:16.321Z,11.93
2022-09-22T19:27:44.373Z,12.50
2022-09-22T19:30:13.571Z,13.33
2022-09-22T19:32:43.437Z,13.63
2022-09-22T19:35:11.957Z,13.17
2022-09-22T19:37:43.522Z,13.70
2022-09-22T19:40:13.262Z,13.47
2022-09-22T19:42:41.526Z,13.10
2022-09-22T19:45:10.398Z,13.00
2022-09-22T19:47:39.447Z,14.03
2022-09-22T19:50:09.718Z,13.73
2022-09-22T19:52:38.151Z,14.40
2022-09-22T19:55:07.061Z,16.43
2022-09-22T19:57:36.296Z,16.97
2022-09-22T20:00:04.665Z,19.20
2022-09-22T20:02:32.730Z,20.13
2022-09-22T20:05:02.910Z,19.33
2022-09-22T20:07:32.385Z,19.70
2022-09-22T20:10:02.237Z,18.97
2022-09-22T20:12:30.405Z,18.73
2022-09-22T20:14:58.399Z,18.27
2022-09-22T20:17:27.689Z,17.63
2022-09-22T20:19:55.980Z,18.20
2022-09-22T20:22:27.634Z,17.03
2022-09-22T20:24:59.368Z,17.17
2022-09-22T20:27:29.599Z,17.43
2022-09-22T20:29:57.791Z,16.87
2022-09-22T20:32:26.457Z,15.70
2022-09-22T20:34:55.573Z,16.47
2022-09-22T20:37:24.904Z,17.07
2022-09-22T20:39:52.895Z,16.60
2022-09-22T20:42:22.568Z,15.90
2022-09-22T20:44:50.670Z,16.10
2022-09-22T20:47:19.991Z,14.67
2022-09-22T20:49:51.498Z,16.60
2022-09-22T20:52:21.115Z,15.17
2022-09-22T20:54:49.536Z,16.63
2022-09-22T20:57:18.177Z,15.83
2022-09-22T20:59:47.606Z,16.43
2022-09-22T21:02:16.648Z,16.00
2022-09-22T21:04:44.963Z,16.53
2022-09-22T21:07:12.910Z,16.30
2022-09-22T21:09:58.599Z,17.07
2022-09-22T21:12:30.947Z,16.60
2022-09-22T21:15:04.131Z,17.73
2022-09-22T21:17:34.045Z,18.37
2022-09-22T21:20:02.858Z,18.73
2022-09-22T21:22:31.115Z,18.23
2022-09-22T21:24:59.036Z,18.60
2022-09-22T21:27:27.385Z,18.33
2022-09-22T21:29:55.974Z,16.80
2022-09-22T21:32:25.273Z,18.13
2022-09-22T21:34:53.226Z,17.87
2022-09-22T21:37:23.334Z,18.43
2022-09-22T21:39:51.303Z,18.37
2022-09-22T21:42:19.813Z,18.37
2022-09-22T21:44:48.562Z,17.50
2022-09-22T21:47:16.522Z,18.60
2022-09-22T21:49:45.839Z,18.47
2022-09-22T21:52:13.813Z,17.97
2022-09-22T21:54:41.798Z,17.53
2022-09-22T21:57:09.790Z,17.93
2022-09-22T21:59:37.833Z,19.47
2022-09-22T22:02:05.978Z,18.10
2022-09-22T22:04:34.365Z,18.90
2022-09-22T22:07:03.758Z,18.13
2022-09-22T22:09:31.942Z,18.43
2022-09-22T22:12:00.130Z,18.37
2022-09-22T22:14:34.852Z,18.40
2022-09-22T22:17:03.274Z,18.70
2022-09-22T22:19:31.312Z,19.90
2022-09-22T22:21:59.311Z,19.43
2022-09-22T22:24:33.202Z,18.80
2022-09-22T22:27:06.733Z,19.43
2022-09-22T22:29:36.282Z,19.43
2022-09-22T22:32:05.337Z,19.53
2022-09-22T22:34:33.501Z,19.20
2022-09-22T22:37:01.560Z,18.83
2022-09-22T22:39:32.221Z,19.40
2022-09-22T22:42:00.258Z,19.10
2022-09-22T22:44:28.365Z,19.07
2022-09-22T22:46:56.443Z,18.20
2022-09-22T22:49:24.486Z,18.60
2022-09-22T22:51:52.541Z,18.63
2022-09-22T22:54:20.584Z,19.17
2022-09-22T22:56:51.432Z,18.53
2022-09-22T22:59:20.166Z,19.07
2022-09-22T23:01:48.294Z,19.20
2022-09-22T23:04:17.471Z,18.87
2022-09-22T23:06:47.267Z,19.47
2022-09-22T23:09:17.317Z,19.13
2022-09-22T23:11:46.265Z,18.53
2022-09-22T23:14:17.068Z,18.23
2022-09-22T23:16:47.270Z,19.30
2022-09-22T23:19:17.827Z,18.90
2022-09-22T23:21:46.703Z,18.27
2022-09-22T23:24:16.759Z,19.87
2022-09-22T23:26:45.563Z,18.43
2022-09-22T23:29:15.153Z,18.97
2022-09-22T23:31:43.526Z,19.60
2022-09-22T23:34:11.576Z,20.03
2022-09-22T23:36:39.989Z,19.90
2022-09-22T23:39:08.361Z,19.60
2022-09-22T23:41:38.065Z,20.27
2022-09-22T23:44:07.216Z,20.10
2022-09-22T23:46:37.520Z,19.30
2022-09-22T23:49:06.127Z,19.77
2022-09-22T23:51:34.201Z,20.37
2022-09-22T23:54:02.514Z,20.60
2022-09-22T23:56:30.537Z,19.20
2022-09-22T23:58:58.535Z,20.03
